createdAt,value
2022-08-28T00:00:40.298Z,77.99
2022-08-28T00:03:11.191Z,78.38
2022-08-28T00:05:41.256Z,78.65
2022-08-28T00:08:12.756Z,78.74
2022-08-28T00:10:41.809Z,78.73
2022-08-28T00:13:18.488Z,78.70
2022-08-28T00:15:50.999Z,78.64
2022-08-28T00:18:20.015Z,78.64
2022-08-28T00:20:49.666Z,78.67
2022-08-28T00:23:18.865Z,78.80
2022-08-28T00:25:46.629Z,78.93
2022-08-28T00:28:23.681Z,79.06
2022-08-28T00:30:57.273Z,79.22
2022-08-28T00:33:33.217Z,79.25
2022-08-28T00:36:02.887Z,79.06
2022-08-28T00:38:31.356Z,79.14
2022-08-28T00:41:04.073Z,79.38
2022-08-28T00:43:42.715Z,79.46
2022-08-28T00:46:20.442Z,79.22
2022-08-28T00:48:50.014Z,79.25
2022-08-28T00:51:38.239Z,79.29
2022-08-28T00:54:08.290Z,79.34
2022-08-28T00:56:40.709Z,79.41
2022-08-28T00:59:15.261Z,79.36
2022-08-28T01:01:46.284Z,79.44
2022-08-28T01:04:18.011Z,79.43
2022-08-28T01:06:49.930Z,79.31
2022-08-28T01:09:20.889Z,79.23
2022-08-28T01:11:52.896Z,79.14
2022-08-28T01:14:23.281Z,79.21
2022-08-28T01:16:56.145Z,79.38
2022-08-28T01:19:38.909Z,79.52
2022-08-28T01:22:26.057Z,79.70
2022-08-28T01:24:59.258Z,79.75
2022-08-28T01:27:27.807Z,79.81
2022-08-28T01:29:56.052Z,79.84
2022-08-28T01:32:41.596Z,79.99
2022-08-28T01:35:15.571Z,80.18
2022-08-28T01:37:43.915Z,80.35
2022-08-28T01:40:17.525Z,80.49
2022-08-28T01:42:45.371Z,80.63
2022-08-28T01:45:17.362Z,80.88
2022-08-28T01:47:46.623Z,80.85
2022-08-28T01:50:20.780Z,80.83
2022-08-28T01:52:48.587Z,80.76
2022-08-28T01:55:16.475Z,80.63
2022-08-28T01:57:53.826Z,80.73
2022-08-28T02:00:26.910Z,80.92
2022-08-28T02:02:58.300Z,81.00
2022-08-28T02:05:28.355Z,81.13
2022-08-28T02:07:57.634Z,81.21
2022-08-28T02:10:27.863Z,81.17
2022-08-28T02:12:59.086Z,81.19
2022-08-28T02:15:28.945Z,81.25
2022-08-28T02:17:57.486Z,81.24
2022-08-28T02:20:26.254Z,81.46
2022-08-28T02:22:54.123Z,81.56
2022-08-28T02:25:22.329Z,81.73
2022-08-28T02:27:50.310Z,81.73
2022-08-28T02:30:18.085Z,81.81
2022-08-28T02:32:46.603Z,81.88
2022-08-28T02:35:18.818Z,81.88
2022-08-28T02:37:47.864Z,82.01
2022-08-28T02:40:22.372Z,82.08
2022-08-28T02:42:50.508Z,82.04
2022-08-28T02:45:20.251Z,81.96
2022-08-28T02:47:51.450Z,82.14
2022-08-28T02:50:21.167Z,82.23
2022-08-28T02:52:49.304Z,82.18
2022-08-28T02:55:19.640Z,81.99
2022-08-28T02:57:48.355Z,82.01
2022-08-28T03:00:22.738Z,82.19
2022-08-28T03:02:52.999Z,82.12
2022-08-28T03:05:26.845Z,82.09
2022-08-28T03:07:55.771Z,82.30
2022-08-28T03:10:23.974Z,82.20
2022-08-28T03:12:51.808Z,82.32
2022-08-28T03:15:19.808Z,82.45
2022-08-28T03:17:47.969Z,82.40
2022-08-28T03:20:16.526Z,82.50
2022-08-28T03:23:03.040Z,82.59
2022-08-28T03:25:31.122Z,82.48
2022-08-28T03:27:58.882Z,82.56
2022-08-28T03:30:27.281Z,82.57
2022-08-28T03:32:55.143Z,82.76
2022-08-28T03:35:23.422Z,82.72
2022-08-28T03:37:51.700Z,82.75
2022-08-28T03:40:20.381Z,82.76
2022-08-28T03:42:53.288Z,82.80
2022-08-28T03:45:22.394Z,82.95
2022-08-28T03:47:51.061Z,83.09
2022-08-28T03:50:19.721Z,83.24
2022-08-28T03:52:47.654Z,83.04
2022-08-28T03:55:15.972Z,83.13
2022-08-28T03:57:43.677Z,83.24
2022-08-28T04:00:13.491Z,83.12
2022-08-28T04:02:43.872Z,83.06
2022-08-28T04:05:12.965Z,83.26
2022-08-28T04:07:40.687Z,83.25
2022-08-28T04:10:09.125Z,83.14
2022-08-28T04:12:37.131Z,83.17
2022-08-28T04:15:07.081Z,83.24
2022-08-28T04:17:38.194Z,83.29
2022-08-28T04:20:10.258Z,83.38
2022-08-28T04:22:39.130Z,83.59
2022-08-28T04:25:07.729Z,83.61
2022-08-28T04:27:35.587Z,83.57
2022-08-28T04:30:05.392Z,83.57
2022-08-28T04:32:35.598Z,83.57
2022-08-28T04:35:07.156Z,83.59
2022-08-28T04:37:36.504Z,83.60
2022-08-28T04:40:09.873Z,83.58
2022-08-28T04:42:40.052Z,83.58
2022-08-28T04:45:08.426Z,83.59
2022-08-28T04:47:38.820Z,83.47
2022-08-28T04:50:07.811Z,83.40
2022-08-28T04:52:35.630Z,83.59
2022-08-28T04:55:05.023Z,83.57
2022-08-28T04:57:36.246Z,83.58
2022-08-28T05:00:07.269Z,83.74
2022-08-28T05:02:35.092Z,83.57
2022-08-28T05:05:04.254Z,83.54
2022-08-28T05:07:33.014Z,83.56
2022-08-28T05:10:00.785Z,83.68
2022-08-28T05:12:28.438Z,83.73
2022-08-28T05:14:56.213Z,83.61
2022-08-28T05:17:23.948Z,83.68
2022-08-28T05:19:54.309Z,83.72
2022-08-28T05:22:22.075Z,83.72
2022-08-28T05:24:49.911Z,83.66
2022-08-28T05:27:17.729Z,83.59
2022-08-28T05:29:45.573Z,83.58
2022-08-28T05:32:13.306Z,83.50
2022-08-28T05:34:41.105Z,83.48
2022-08-28T05:37:09.656Z,83.63
2022-08-28T05:39:37.373Z,83.58
2022-08-28T05:42:05.624Z,83.38
2022-08-28T05:44:33.303Z,83.48
2022-08-28T05:47:00.996Z,83.52
2022-08-28T05:49:28.682Z,83.37
2022-08-28T05:51:56.542Z,83.14
2022-08-28T05:54:24.445Z,83.20
2022-08-28T05:56:52.141Z,83.19
2022-08-28T05:59:19.886Z,82.99
2022-08-28T06:01:49.620Z,83.01
2022-08-28T06:04:27.063Z,82.91
2022-08-28T06:06:55.829Z,82.80
2022-08-28T06:09:29.732Z,82.84
2022-08-28T06:12:02.287Z,82.66
2022-08-28T06:14:31.973Z,82.51
2022-08-28T06:17:02.430Z,82.38
2022-08-28T06:19:32.623Z,82.46
2022-08-28T06:22:07.367Z,82.33
2022-08-28T06:24:36.633Z,82.01
2022-08-28T06:27:05.194Z,81.91
2022-08-28T06:29:33.127Z,82.04
2022-08-28T06:32:04.878Z,81.98
2022-08-28T06:34:33.331Z,81.89
2022-08-28T06:37:01.301Z,81.83
2022-08-28T06:39:29.161Z,81.73
2022-08-28T06:41:56.941Z,81.67
2022-08-28T06:44:24.910Z,81.40
2022-08-28T06:46:54.558Z,81.40
2022-08-28T06:49:22.720Z,81.04
2022-08-28T06:51:51.078Z,80.74
2022-08-28T06:54:22.689Z,80.58
2022-08-28T06:56:52.433Z,80.53
2022-08-28T06:59:20.720Z,80.27
2022-08-28T07:01:48.569Z,80.01
2022-08-28T07:04:16.593Z,79.83
2022-08-28T07:06:47.118Z,79.45
2022-08-28T07:09:16.296Z,79.35
2022-08-28T07:11:49.073Z,79.19
2022-08-28T07:14:17.252Z,79.16
2022-08-28T07:16:45.037Z,78.87
2022-08-28T07:19:14.189Z,78.61
2022-08-28T07:21:45.168Z,78.69
2022-08-28T07:24:16.051Z,78.33
2022-08-28T07:26:46.080Z,78.45
2022-08-28T07:29:14.586Z,78.23
2022-08-28T07:31:46.722Z,78.00
2022-08-28T07:34:17.441Z,78.06
2022-08-28T07:36:45.751Z,77.92
2022-08-28T07:39:15.586Z,77.53
2022-08-28T07:41:43.644Z,77.34
2022-08-28T07:44:33.633Z,77.16
2022-08-28T07:47:05.707Z,77.09
2022-08-28T07:49:35.145Z,76.98
2022-08-28T07:52:04.445Z,76.90
2022-08-28T07:54:32.654Z,76.44
2022-08-28T07:57:02.089Z,75.70
2022-08-28T07:59:36.602Z,75.53
2022-08-28T08:02:07.070Z,75.40
2022-08-28T08:04:35.346Z,75.58
2022-08-28T08:07:04.861Z,75.28
2022-08-28T08:09:42.118Z,75.11
2022-08-28T08:12:13.497Z,74.52
2022-08-28T08:14:43.429Z,74.43
2022-08-28T08:17:11.841Z,74.48
2022-08-28T08:19:39.876Z,74.39
2022-08-28T08:22:07.708Z,74.29
2022-08-28T08:24:35.601Z,74.06
2022-08-28T08:27:03.531Z,73.33
2022-08-28T08:29:35.951Z,73.39
2022-08-28T08:32:11.044Z,73.16
2022-08-28T08:34:49.303Z,72.52
2022-08-28T08:37:17.035Z,72.03
2022-08-28T08:39:44.787Z,72.31
2022-08-28T08:42:25.407Z,72.20
2022-08-28T08:44:57.966Z,72.04
2022-08-28T08:47:53.929Z,71.63
2022-08-28T08:50:32.894Z,70.58
2022-08-28T08:53:25.689Z,70.40
2022-08-28T08:55:57.000Z,70.53
2022-08-28T08:58:35.198Z,70.00
2022-08-28T09:01:39.173Z,69.97
2022-08-28T09:04:21.652Z,69.41
2022-08-28T09:07:01.115Z,68.47
2022-08-28T09:09:34.069Z,68.65
2022-08-28T09:12:05.610Z,68.83
2022-08-28T09:15:05.143Z,68.53
2022-08-28T09:17:41.289Z,68.33
2022-08-28T09:20:15.990Z,68.08
2022-08-28T09:22:47.345Z,67.48
2022-08-28T09:25:59.688Z,66.80
2022-08-28T09:28:36.118Z,66.59
2022-08-28T09:31:15.605Z,66.12
2022-08-28T09:33:52.156Z,65.64
2022-08-28T09:36:32.520Z,65.41
2022-08-28T09:39:27.699Z,64.57
2022-08-28T09:42:34.152Z,63.93
2022-08-28T09:45:20.973Z,63.77
2022-08-28T09:47:56.370Z,62.93
2022-08-28T09:50:31.802Z,63.42
2022-08-28T09:53:15.189Z,62.91
2022-08-28T09:56:11.774Z,62.04
2022-08-28T09:58:43.921Z,61.87
2022-08-28T10:02:04.979Z,62.90
2022-08-28T10:05:03.237Z,61.77
2022-08-28T10:07:43.377Z,61.34
2022-08-28T10:10:45.042Z,59.59
2022-08-28T10:13:54.356Z,60.56
2022-08-28T10:17:32.444Z,61.02
2022-08-28T10:20:15.583Z,61.03
2022-08-28T10:23:05.115Z,60.65
2022-08-28T10:25:59.393Z,60.12
2022-08-28T10:28:41.513Z,59.91
2022-08-28T10:31:45.235Z,59.97
2022-08-28T10:34:30.803Z,59.87
2022-08-28T10:37:36.986Z,59.40
2022-08-28T10:40:17.640Z,59.90
2022-08-28T10:42:59.745Z,58.83
2022-08-28T10:45:33.320Z,59.10
2022-08-28T10:48:11.129Z,58.06
2022-08-28T10:50:47.944Z,56.80
2022-08-28T10:53:42.254Z,57.49
2022-08-28T10:56:26.008Z,55.39
2022-08-28T10:58:59.488Z,55.63
2022-08-28T11:01:40.629Z,56.10
2022-08-28T11:04:24.870Z,56.34
2022-08-28T11:07:32.240Z,56.17
2022-08-28T11:10:32.222Z,57.30
2022-08-28T11:13:02.801Z,56.39
2022-08-28T11:15:36.838Z,55.16
2022-08-28T11:18:41.639Z,55.93
2022-08-28T11:21:33.070Z,55.65
2022-08-28T11:24:18.033Z,55.29
2022-08-28T11:27:05.457Z,55.40
2022-08-28T11:30:10.805Z,55.05
2022-08-28T11:32:50.312Z,53.75
2022-08-28T11:35:20.945Z,53.35
2022-08-28T11:37:52.740Z,52.87
2022-08-28T11:40:32.701Z,52.25
2022-08-28T11:43:29.584Z,52.46
2022-08-28T11:46:00.351Z,51.80
2022-08-28T11:48:37.405Z,51.48
2022-08-28T11:51:17.049Z,51.18
2022-08-28T11:54:17.333Z,51.06
2022-08-28T11:57:05.323Z,49.88
2022-08-28T11:59:53.414Z,50.63
2022-08-28T12:02:39.832Z,50.29
2022-08-28T12:05:32.497Z,49.48
2022-08-28T12:08:04.985Z,50.47
2022-08-28T12:10:32.811Z,49.54
2022-08-28T12:13:05.078Z,49.32
2022-08-28T12:15:33.572Z,49.52
2022-08-28T12:18:12.002Z,49.71
2022-08-28T12:21:01.054Z,49.50
2022-08-28T12:23:41.532Z,49.65
2022-08-28T12:26:22.394Z,49.60
2022-08-28T12:29:01.183Z,49.50
2022-08-28T12:31:48.827Z,48.61
2022-08-28T12:34:43.605Z,48.50
2022-08-28T12:37:52.176Z,47.13
2022-08-28T12:40:30.450Z,47.77
2022-08-28T12:43:04.180Z,46.47
2022-08-28T12:45:55.462Z,47.01
2022-08-28T12:48:25.094Z,46.83
2022-08-28T12:51:11.808Z,46.16
2022-08-28T12:53:50.781Z,45.16
2022-08-28T12:56:21.894Z,45.26
2022-08-28T12:58:50.806Z,45.88
2022-08-28T13:01:21.808Z,45.35
2022-08-28T13:03:53.433Z,45.13
2022-08-28T13:06:32.822Z,44.63
2022-08-28T13:09:14.105Z,45.18
2022-08-28T13:11:49.148Z,44.96
2022-08-28T13:14:46.062Z,45.48
2022-08-28T13:17:17.518Z,45.17
2022-08-28T13:19:45.297Z,44.52
2022-08-28T13:22:35.740Z,44.44
2022-08-28T13:25:05.418Z,43.76
2022-08-28T13:27:33.286Z,44.42
2022-08-28T13:30:29.048Z,43.75
2022-08-28T13:33:02.561Z,43.64
2022-08-28T13:35:36.802Z,43.15
2022-08-28T13:38:10.555Z,43.92
2022-08-28T13:41:01.844Z,43.69
2022-08-28T13:43:45.256Z,43.91
2022-08-28T13:46:13.755Z,43.52
2022-08-28T13:48:41.516Z,43.32
2022-08-28T13:51:20.209Z,43.32
2022-08-28T13:53:50.443Z,43.42
2022-08-28T13:56:21.940Z,43.86
2022-08-28T13:58:57.298Z,43.73
2022-08-28T14:01:46.404Z,43.75
2022-08-28T14:04:14.593Z,44.30
2022-08-28T14:06:44.071Z,44.03
2022-08-28T14:09:15.426Z,44.27
2022-08-28T14:11:47.862Z,44.09
2022-08-28T14:14:16.899Z,44.63
2022-08-28T14:16:45.874Z,43.99
2022-08-28T14:19:13.684Z,44.61
2022-08-28T14:21:41.831Z,44.77
2022-08-28T14:24:10.098Z,44.26
2022-08-28T14:26:38.576Z,44.17
2022-08-28T14:29:09.508Z,43.89
2022-08-28T14:31:37.726Z,44.15
2022-08-28T14:34:05.489Z,44.63
2022-08-28T14:36:33.417Z,45.21
2022-08-28T14:39:06.163Z,45.80
2022-08-28T14:41:35.505Z,46.00
2022-08-28T14:44:04.573Z,46.86
2022-08-28T14:46:35.881Z,47.07
2022-08-28T14:49:10.782Z,47.23
2022-08-28T14:51:42.360Z,47.11
2022-08-28T14:54:14.492Z,46.99
2022-08-28T14:56:45.091Z,46.66
2022-08-28T14:59:21.884Z,46.69
2022-08-28T15:01:55.492Z,45.82
2022-08-28T15:04:26.047Z,45.18
2022-08-28T15:06:59.670Z,45.49
2022-08-28T15:09:27.975Z,45.79
2022-08-28T15:11:56.094Z,46.59
2022-08-28T15:14:24.011Z,46.68
2022-08-28T15:16:52.937Z,46.56
2022-08-28T15:19:23.276Z,46.59
2022-08-28T15:21:55.064Z,47.58
2022-08-28T15:24:31.355Z,47.41
2022-08-28T15:26:59.844Z,47.61
2022-08-28T15:29:29.932Z,47.92
2022-08-28T15:31:58.752Z,47.43
2022-08-28T15:34:28.493Z,47.99
2022-08-28T15:36:58.130Z,47.38
2022-08-28T15:39:47.362Z,47.86
2022-08-28T15:42:15.320Z,47.98
2022-08-28T15:44:44.330Z,47.84
2022-08-28T15:47:13.760Z,48.37
2022-08-28T15:49:44.798Z,48.91
2022-08-28T15:52:18.766Z,48.78
2022-08-28T15:54:48.806Z,48.69
2022-08-28T15:57:17.495Z,48.34
2022-08-28T15:59:49.668Z,48.80
2022-08-28T16:02:23.013Z,48.87
2022-08-28T16:04:53.576Z,49.31
2022-08-28T16:07:22.859Z,48.68
2022-08-28T16:09:51.634Z,48.57
2022-08-28T16:12:19.632Z,49.06
2022-08-28T16:14:47.366Z,49.35
2022-08-28T16:17:15.080Z,49.08
2022-08-28T16:19:43.075Z,48.84
2022-08-28T16:22:15.858Z,48.73
2022-08-28T16:24:45.619Z,48.74
2022-08-28T16:27:15.811Z,48.50
2022-08-28T16:29:45.530Z,48.84
2022-08-28T16:32:13.310Z,49.48
2022-08-28T16:34:41.681Z,49.49
2022-08-28T16:37:13.337Z,48.75
2022-08-28T16:39:46.440Z,48.49
2022-08-28T16:42:14.310Z,48.44
2022-08-28T16:44:42.065Z,48.50
2022-08-28T16:47:10.250Z,47.65
2022-08-28T16:49:38.118Z,47.89
2022-08-28T16:52:06.076Z,48.24
2022-08-28T16:54:33.850Z,48.53
2022-08-28T16:57:02.110Z,48.35
2022-08-28T16:59:29.889Z,48.80
2022-08-28T17:01:57.668Z,49.19
2022-08-28T17:04:25.821Z,48.88
2022-08-28T17:06:53.598Z,49.34
2022-08-28T17:09:23.548Z,49.82
2022-08-28T17:11:52.096Z,49.89
2022-08-28T17:14:22.187Z,50.29
2022-08-28T17:16:52.054Z,50.88
2022-08-28T17:19:20.941Z,51.30
2022-08-28T17:22:07.724Z,50.78
2022-08-28T17:24:35.577Z,50.74
2022-08-28T17:27:05.892Z,50.85
2022-08-28T17:29:36.362Z,51.69
2022-08-28T17:32:05.748Z,51.95
2022-08-28T17:34:34.622Z,52.57
2022-08-28T17:37:04.185Z,52.32
2022-08-28T17:39:32.115Z,52.23
2022-08-28T17:41:59.978Z,52.42
2022-08-28T17:44:27.945Z,52.35
2022-08-28T17:46:56.021Z,52.37
2022-08-28T17:49:23.813Z,52.35
2022-08-28T17:51:51.519Z,52.45
2022-08-28T17:54:24.407Z,52.50
2022-08-28T17:56:54.514Z,52.43
2022-08-28T17:59:25.148Z,52.70
2022-08-28T18:01:53.927Z,52.98
2022-08-28T18:04:24.399Z,52.61
2022-08-28T18:06:54.605Z,52.79
2022-08-28T18:09:23.929Z,52.68
2022-08-28T18:11:53.395Z,52.98
2022-08-28T18:14:21.647Z,53.03
2022-08-28T18:16:50.057Z,53.25
2022-08-28T18:19:18.253Z,53.41
2022-08-28T18:21:46.235Z,53.63
2022-08-28T18:24:14.086Z,53.76
2022-08-28T18:26:43.777Z,54.05
2022-08-28T18:29:12.555Z,54.07
2022-08-28T18:31:41.967Z,53.93
2022-08-28T18:34:10.627Z,53.74
2022-08-28T18:36:43.428Z,53.95
2022-08-28T18:39:11.836Z,54.19
2022-08-28T18:41:43.879Z,54.27
2022-08-28T18:44:17.706Z,54.48
2022-08-28T18:46:48.236Z,54.84
2022-08-28T18:49:16.656Z,55.27
2022-08-28T18:51:45.833Z,55.33
2022-08-28T18:54:16.982Z,54.92
2022-08-28T18:56:45.662Z,54.51
2022-08-28T18:59:13.631Z,54.65
2022-08-28T19:01:42.095Z,54.64
2022-08-28T19:04:10.074Z,54.50
2022-08-28T19:06:38.097Z,54.48
2022-08-28T19:09:06.350Z,54.26
2022-08-28T19:11:35.886Z,54.36
2022-08-28T19:14:04.228Z,54.70
2022-08-28T19:16:32.266Z,54.73
2022-08-28T19:19:02.069Z,55.01
2022-08-28T19:21:30.352Z,55.12
2022-08-28T19:23:58.162Z,55.12
2022-08-28T19:26:27.657Z,55.47
2022-08-28T19:28:56.669Z,55.70
2022-08-28T19:31:27.264Z,56.07
2022-08-28T19:33:57.393Z,56.50
2022-08-28T19:36:27.349Z,56.93
2022-08-28T19:38:55.238Z,57.28
2022-08-28T19:41:23.421Z,57.48
2022-08-28T19:43:51.492Z,57.72
2022-08-28T19:46:20.595Z,57.84
2022-08-28T19:48:52.093Z,58.23
2022-08-28T19:51:24.034Z,58.60
2022-08-28T19:53:58.213Z,58.64
2022-08-28T19:56:33.187Z,58.83
2022-08-28T19:59:04.108Z,58.92
2022-08-28T20:01:37.745Z,59.18
2022-08-28T20:04:08.637Z,59.42
2022-08-28T20:06:37.103Z,59.68
2022-08-28T20:09:09.430Z,59.97
2022-08-28T20:11:42.062Z,60.34
2022-08-28T20:14:09.946Z,60.38
2022-08-28T20:16:42.861Z,60.71
2022-08-28T20:19:12.663Z,60.81
2022-08-28T20:21:44.262Z,61.13
2022-08-28T20:24:17.672Z,61.33
2022-08-28T20:26:45.447Z,61.62
2022-08-28T20:29:14.765Z,61.92
2022-08-28T20:31:47.214Z,62.14
2022-08-28T20:34:18.320Z,62.58
2022-08-28T20:36:46.759Z,62.85
2022-08-28T20:39:15.625Z,63.11
2022-08-28T20:41:44.626Z,63.34
2022-08-28T20:44:16.366Z,63.72
2022-08-28T20:46:48.972Z,63.77
2022-08-28T20:49:23.808Z,64.04
2022-08-28T20:52:00.767Z,64.25
2022-08-28T20:54:36.948Z,64.39
2022-08-28T20:57:09.660Z,64.60
2022-08-28T20:59:41.252Z,64.87
2022-08-28T21:02:14.044Z,65.23
2022-08-28T21:04:44.375Z,65.46
2022-08-28T21:07:15.153Z,65.54
2022-08-28T21:10:05.205Z,65.70
2022-08-28T21:12:31.348Z,65.91
2022-08-28T21:14:59.761Z,66.14
2022-08-28T21:17:29.544Z,66.25
2022-08-28T21:20:02.859Z,66.54
2022-08-28T21:22:33.034Z,67.10
2022-08-28T21:25:06.297Z,67.56
2022-08-28T21:27:35.215Z,67.61
2022-08-28T21:30:06.146Z,67.72
2022-08-28T21:32:34.990Z,67.54
2022-08-28T21:35:06.624Z,67.66
2022-08-28T21:37:35.204Z,68.05
2022-08-28T21:40:07.276Z,68.62
2022-08-28T21:42:36.215Z,68.61
2022-08-28T21:45:11.266Z,68.56
2022-08-28T21:47:41.883Z,68.63
2022-08-28T21:50:11.360Z,68.86
2022-08-28T21:52:39.402Z,69.42
2022-08-28T21:55:14.908Z,69.60
2022-08-28T21:57:43.117Z,69.72
2022-08-28T22:00:19.734Z,69.81
2022-08-28T22:02:48.584Z,70.14
2022-08-28T22:05:17.102Z,70.42
2022-08-28T22:07:45.161Z,70.29
2022-08-28T22:10:13.058Z,70.52
2022-08-28T22:12:40.891Z,70.76
2022-08-28T22:15:09.015Z,70.67
2022-08-28T22:17:36.807Z,70.71
2022-08-28T22:20:05.615Z,70.98
2022-08-28T22:22:52.193Z,70.84
2022-08-28T22:25:20.090Z,71.32
2022-08-28T22:27:47.878Z,71.24
2022-08-28T22:30:15.687Z,71.27
2022-08-28T22:32:45.296Z,71.23
2022-08-28T22:35:13.058Z,71.28
2022-08-28T22:37:40.910Z,71.33
2022-08-28T22:40:13.471Z,71.73
2022-08-28T22:42:42.667Z,71.44
2022-08-28T22:45:10.943Z,71.17
2022-08-28T22:47:39.684Z,71.03
2022-08-28T22:50:08.516Z,71.07
2022-08-28T22:52:37.202Z,71.31
2022-08-28T22:55:10.463Z,71.54
2022-08-28T22:57:40.338Z,71.79
2022-08-28T23:00:14.070Z,71.94
2022-08-28T23:02:42.550Z,72.13
2022-08-28T23:05:11.110Z,72.24
2022-08-28T23:07:38.974Z,72.16
2022-08-28T23:10:08.387Z,72.12
2022-08-28T23:12:36.419Z,72.24
2022-08-28T23:15:11.829Z,72.36
2022-08-28T23:17:39.749Z,72.29
2022-08-28T23:20:13.276Z,72.17
2022-08-28T23:22:41.311Z,72.29
2022-08-28T23:25:15.649Z,72.48
2022-08-28T23:27:45.197Z,72.52
2022-08-28T23:30:16.151Z,72.59
2022-08-28T23:32:44.399Z,72.52
2022-08-28T23:35:14.156Z,72.49
2022-08-28T23:37:48.034Z,72.49
2022-08-28T23:40:21.787Z,72.40
2022-08-28T23:42:50.285Z,72.41
2022-08-28T23:45:20.100Z,72.62
2022-08-28T23:47:48.194Z,72.78
2022-08-28T23:50:22.062Z,72.96
2022-08-28T23:52:50.812Z,73.04
2022-08-28T23:55:19.898Z,72.99
2022-08-28T23:57:48.206Z,73.18
